createdAt,value
2022-11-02T00:00:31.403Z,8.36
2022-11-02T00:02:57.749Z,8.37
2022-11-02T00:05:24.064Z,8.38
2022-11-02T00:07:50.297Z,8.39
2022-11-02T00:10:16.501Z,8.36
2022-11-02T00:12:42.731Z,8.35
2022-11-02T00:15:08.929Z,8.35
2022-11-02T00:17:35.216Z,8.32
2022-11-02T00:20:01.410Z,8.33
2022-11-02T00:22:27.608Z,8.28
2022-11-02T00:24:53.756Z,8.30
2022-11-02T00:27:19.927Z,8.26
2022-11-02T00:29:46.101Z,8.29
2022-11-02T00:32:12.332Z,8.29
2022-11-02T00:34:38.588Z,8.26
2022-11-02T00:37:04.779Z,8.23
2022-11-02T00:39:30.939Z,8.22
2022-11-02T00:41:57.096Z,8.23
2022-11-02T00:44:23.277Z,8.22
2022-11-02T00:46:49.495Z,8.20
2022-11-02T00:49:15.723Z,8.21
2022-11-02T00:51:41.907Z,8.22
2022-11-02T00:54:08.177Z,8.23
2022-11-02T00:56:34.396Z,8.25
2022-11-02T00:59:00.623Z,8.26
2022-11-02T01:01:26.924Z,8.25
2022-11-02T01:03:53.180Z,8.24
2022-11-02T01:06:19.352Z,8.21
2022-11-02T01:08:45.553Z,8.21
2022-11-02T01:11:11.769Z,8.19
2022-11-02T01:13:37.988Z,8.19
2022-11-02T01:16:04.227Z,8.13
2022-11-02T01:18:30.471Z,8.12
2022-11-02T01:20:56.684Z,8.12
2022-11-02T01:23:22.927Z,8.13
2022-11-02T01:25:49.138Z,8.14
2022-11-02T01:28:15.371Z,8.17
2022-11-02T01:30:41.579Z,8.11
2022-11-02T01:33:07.753Z,8.09
2022-11-02T01:35:33.976Z,8.05
2022-11-02T01:38:00.185Z,8.07
2022-11-02T01:40:26.413Z,8.04
2022-11-02T01:42:52.639Z,8.01
2022-11-02T01:45:18.831Z,8.04
2022-11-02T01:47:45.000Z,8.05
2022-11-02T01:50:11.167Z,8.08
2022-11-02T01:52:37.375Z,8.10
2022-11-02T01:55:03.765Z,8.19
2022-11-02T01:57:29.970Z,8.22
2022-11-02T01:59:56.153Z,8.26
2022-11-02T02:02:22.427Z,8.34
2022-11-02T02:04:48.758Z,8.34
2022-11-02T02:07:14.994Z,8.35
2022-11-02T02:09:41.189Z,8.31
2022-11-02T02:12:07.443Z,8.41
2022-11-02T02:14:33.671Z,8.45
2022-11-02T02:16:59.839Z,8.46
2022-11-02T02:19:26.031Z,8.49
2022-11-02T02:21:52.259Z,8.51
2022-11-02T02:24:18.464Z,8.51
2022-11-02T02:26:44.719Z,8.50
2022-11-02T02:29:10.935Z,8.50
2022-11-02T02:31:37.129Z,8.52
2022-11-02T02:34:03.348Z,8.49
2022-11-02T02:36:29.583Z,8.49
2022-11-02T02:38:55.785Z,8.49
2022-11-02T02:41:21.993Z,8.47
2022-11-02T02:43:48.177Z,8.44
2022-11-02T02:46:14.597Z,8.38
2022-11-02T02:48:40.853Z,8.31
2022-11-02T02:51:07.067Z,8.28
2022-11-02T02:53:33.281Z,8.27
2022-11-02T02:55:59.507Z,8.25
2022-11-02T02:58:25.717Z,8.23
2022-11-02T03:00:51.969Z,8.20
2022-11-02T03:03:18.193Z,8.16
2022-11-02T03:05:44.445Z,8.15
2022-11-02T03:08:10.610Z,8.12
2022-11-02T03:10:36.833Z,8.12
2022-11-02T03:13:03.031Z,8.11
2022-11-02T03:15:29.262Z,8.09
2022-11-02T03:17:55.465Z,8.05
2022-11-02T03:20:21.652Z,7.97
2022-11-02T03:22:47.895Z,7.90
2022-11-02T03:25:14.126Z,7.88
2022-11-02T03:27:40.308Z,7.95
2022-11-02T03:30:06.538Z,8.06
2022-11-02T03:32:32.745Z,8.09
2022-11-02T03:34:58.978Z,8.07
2022-11-02T03:37:25.521Z,8.03
2022-11-02T03:39:51.721Z,8.03
2022-11-02T03:42:17.987Z,8.15
2022-11-02T03:44:44.188Z,8.24
2022-11-02T03:47:10.417Z,8.41
2022-11-02T03:49:36.647Z,8.55
2022-11-02T03:52:02.880Z,8.63
2022-11-02T03:54:29.086Z,8.74
2022-11-02T03:56:55.363Z,8.90
2022-11-02T03:59:21.571Z,9.17
2022-11-02T04:01:47.871Z,9.38
2022-11-02T04:04:14.140Z,9.55
2022-11-02T04:06:40.356Z,9.68
2022-11-02T04:09:06.584Z,9.79
2022-11-02T04:11:32.763Z,9.94
2022-11-02T04:13:58.988Z,10.03
2022-11-02T04:16:28.380Z,10.11
2022-11-02T04:18:54.709Z,10.11
2022-11-02T04:21:20.895Z,10.14
2022-11-02T04:23:47.094Z,10.15
2022-11-02T04:26:13.288Z,10.20
2022-11-02T04:28:39.496Z,10.22
2022-11-02T04:31:05.691Z,10.22
2022-11-02T04:33:31.927Z,10.17
2022-11-02T04:35:58.098Z,10.18
2022-11-02T04:38:24.308Z,10.20
2022-11-02T04:40:50.503Z,10.23
2022-11-02T04:43:16.709Z,10.26
2022-11-02T04:45:42.932Z,10.28
2022-11-02T04:48:09.192Z,10.29
2022-11-02T04:50:35.423Z,10.32
2022-11-02T04:53:01.628Z,10.34
2022-11-02T04:55:28.046Z,10.38
2022-11-02T04:57:54.231Z,10.37
2022-11-02T05:00:20.446Z,10.28
2022-11-02T05:02:46.830Z,10.25
2022-11-02T05:05:13.082Z,10.18
2022-11-02T05:07:39.325Z,10.14
2022-11-02T05:10:05.512Z,10.18
2022-11-02T05:12:31.735Z,10.14
2022-11-02T05:14:57.961Z,10.16
2022-11-02T05:17:24.189Z,10.21
2022-11-02T05:19:50.415Z,10.19
2022-11-02T05:22:16.611Z,10.25
2022-11-02T05:24:42.803Z,10.31
2022-11-02T05:27:09.032Z,10.32
2022-11-02T05:29:35.229Z,10.28
2022-11-02T05:32:01.486Z,10.29
2022-11-02T05:34:27.673Z,10.35
2022-11-02T05:36:53.810Z,10.28
2022-11-02T05:39:19.934Z,10.24
2022-11-02T05:41:48.025Z,10.21
2022-11-02T05:44:14.156Z,10.11
2022-11-02T05:46:40.341Z,10.05
2022-11-02T05:49:06.489Z,9.93
2022-11-02T05:51:32.627Z,9.85
2022-11-02T05:53:58.838Z,9.79
2022-11-02T05:56:25.451Z,9.74
2022-11-02T06:01:22.811Z,9.62
2022-11-02T06:03:53.199Z,9.56
2022-11-02T06:06:20.030Z,9.49
2022-11-02T06:08:46.159Z,9.44
2022-11-02T06:11:12.286Z,9.37
2022-11-02T06:13:38.426Z,9.30
2022-11-02T06:16:04.570Z,9.24
2022-11-02T06:18:30.715Z,9.20
2022-11-02T06:20:56.838Z,9.26
2022-11-02T06:23:23.007Z,9.24
2022-11-02T06:25:49.146Z,9.19
2022-11-02T06:28:15.390Z,9.25
2022-11-02T06:30:41.589Z,9.21
2022-11-02T06:33:07.787Z,9.22
2022-11-02T06:35:33.929Z,9.28
2022-11-02T06:38:00.121Z,9.28
2022-11-02T06:40:26.706Z,9.32
2022-11-02T06:43:14.990Z,9.38
2022-11-02T06:45:39.129Z,9.45
2022-11-02T06:48:05.254Z,9.50
2022-11-02T06:50:31.437Z,9.60
2022-11-02T06:52:57.644Z,9.68
2022-11-02T06:55:23.756Z,9.56
2022-11-02T06:57:49.947Z,9.85
2022-11-02T07:00:18.063Z,9.91
2022-11-02T07:02:47.269Z,9.92
2022-11-02T07:05:13.535Z,9.97
2022-11-02T07:07:39.672Z,9.95
2022-11-02T07:10:05.916Z,10.02
2022-11-02T07:12:32.082Z,10.06
2022-11-02T07:14:58.264Z,10.08
2022-11-02T07:17:29.535Z,10.15
2022-11-02T07:19:58.092Z,10.17
2022-11-02T07:22:24.310Z,10.22
2022-11-02T07:24:50.494Z,10.26
2022-11-02T07:27:16.675Z,10.33
2022-11-02T07:29:42.909Z,10.37
2022-11-02T07:32:09.171Z,10.40
2022-11-02T07:34:35.385Z,10.44
2022-11-02T07:37:01.747Z,10.47
2022-11-02T07:39:27.971Z,10.51
2022-11-02T07:41:54.181Z,10.53
2022-11-02T07:44:20.416Z,10.53
2022-11-02T07:46:46.653Z,10.53
2022-11-02T07:49:16.024Z,10.51
2022-11-02T07:51:45.038Z,10.59
2022-11-02T07:54:11.237Z,10.68
2022-11-02T07:56:37.464Z,10.85
2022-11-02T07:59:03.683Z,10.98
2022-11-02T08:01:29.921Z,11.07
2022-11-02T08:03:56.168Z,11.25
2022-11-02T08:06:22.296Z,11.34
2022-11-02T08:08:48.538Z,11.45
2022-11-02T08:11:14.756Z,11.54
2022-11-02T08:13:40.977Z,11.69
2022-11-02T08:16:07.191Z,12.04
2022-11-02T08:18:33.401Z,12.26
2022-11-02T08:20:59.628Z,12.53
2022-11-02T08:23:25.841Z,13.00
2022-11-02T08:25:52.061Z,13.22
2022-11-02T08:28:18.273Z,13.24
2022-11-02T08:30:44.468Z,13.54
2022-11-02T08:33:10.692Z,14.13
2022-11-02T08:35:36.921Z,15.01
2022-11-02T08:38:03.586Z,15.67
2022-11-02T08:40:30.104Z,15.84
2022-11-02T08:42:56.363Z,15.29
2022-11-02T08:45:22.525Z,14.81
2022-11-02T08:47:48.937Z,14.73
2022-11-02T08:50:15.333Z,14.53
2022-11-02T08:52:41.541Z,14.64
2022-11-02T08:55:07.768Z,14.61
2022-11-02T08:57:33.940Z,14.29
2022-11-02T09:00:00.147Z,13.86
2022-11-02T09:02:26.417Z,13.64
2022-11-02T09:04:52.663Z,13.34
2022-11-02T09:07:18.879Z,13.40
2022-11-02T09:09:45.060Z,13.57
2022-11-02T09:12:11.276Z,13.74
2022-11-02T09:14:37.503Z,13.77
2022-11-02T09:17:03.709Z,14.01
2022-11-02T09:19:29.944Z,14.16
2022-11-02T09:21:56.156Z,14.40
2022-11-02T09:24:22.329Z,14.68
2022-11-02T09:26:48.509Z,14.95
2022-11-02T09:29:14.780Z,15.19
2022-11-02T09:31:40.973Z,15.19
2022-11-02T09:34:07.264Z,14.99
2022-11-02T09:36:33.480Z,15.42
2022-11-02T09:38:59.653Z,15.73
2022-11-02T09:41:25.909Z,16.09
2022-11-02T09:43:52.080Z,16.07
2022-11-02T09:46:18.287Z,16.77
2022-11-02T09:48:44.484Z,17.45
2022-11-02T09:51:10.721Z,18.44
2022-11-02T09:53:36.888Z,19.27
2022-11-02T09:56:03.091Z,19.76
2022-11-02T09:58:29.220Z,20.38
2022-11-02T10:00:59.334Z,20.40
2022-11-02T10:03:27.925Z,19.64
2022-11-02T10:05:54.039Z,19.00
2022-11-02T10:08:20.169Z,17.94
2022-11-02T10:10:46.374Z,17.79
2022-11-02T10:13:12.562Z,17.44
2022-11-02T10:15:38.772Z,17.33
2022-11-02T10:18:04.932Z,17.71
2022-11-02T10:20:31.328Z,18.00
2022-11-02T10:22:57.486Z,17.77
2022-11-02T10:25:23.638Z,18.07
2022-11-02T10:27:49.863Z,18.18
2022-11-02T10:30:16.141Z,18.00
2022-11-02T10:35:31.249Z,17.43
2022-11-02T10:37:55.696Z,17.66
2022-11-02T10:40:21.859Z,17.75
2022-11-02T10:42:48.155Z,17.81
2022-11-02T10:45:14.328Z,17.81
2022-11-02T10:47:40.485Z,17.99
2022-11-02T10:50:11.926Z,18.47
2022-11-02T10:52:38.513Z,18.55
2022-11-02T10:55:04.675Z,18.49
2022-11-02T10:57:30.839Z,18.41
2022-11-02T10:59:57.178Z,18.19
2022-11-02T11:02:23.345Z,18.01
2022-11-02T11:04:49.483Z,18.04
2022-11-02T11:07:15.878Z,17.81
2022-11-02T11:09:46.514Z,17.77
2022-11-02T11:12:13.112Z,17.98
2022-11-02T11:20:11.892Z,17.64
2022-11-02T11:22:38.131Z,17.54
2022-11-02T11:25:04.291Z,17.56
2022-11-02T11:27:30.479Z,17.60
2022-11-02T11:29:56.629Z,17.50
2022-11-02T11:32:28.669Z,17.45
2022-11-02T11:34:56.259Z,17.49
2022-11-02T11:37:22.542Z,17.27
2022-11-02T11:39:52.434Z,17.50
2022-11-02T11:42:21.115Z,17.50
2022-11-02T11:44:47.414Z,17.27
2022-11-02T11:47:13.613Z,17.50
2022-11-02T11:50:07.138Z,17.23
2022-11-02T11:52:31.179Z,17.42
2022-11-02T11:54:58.316Z,17.58
2022-11-02T11:57:24.798Z,17.48
2022-11-02T11:59:51.149Z,17.61
2022-11-02T12:02:17.611Z,17.57
2022-11-02T12:04:44.010Z,17.76
2022-11-02T12:07:10.187Z,17.80
2022-11-02T12:09:36.344Z,17.89
2022-11-02T12:12:02.601Z,17.61
2022-11-02T12:14:28.806Z,17.80
2022-11-02T12:16:55.018Z,17.66
2022-11-02T12:19:21.277Z,17.63
2022-11-02T12:21:47.451Z,17.66
2022-11-02T12:24:13.675Z,17.49
2022-11-02T12:26:39.933Z,17.47
2022-11-02T12:29:06.198Z,17.46
2022-11-02T12:31:32.415Z,17.39
2022-11-02T12:33:58.648Z,17.48
2022-11-02T12:36:24.820Z,17.20
2022-11-02T12:38:51.006Z,17.16
2022-11-02T12:41:17.194Z,16.95
2022-11-02T12:43:43.364Z,17.27
2022-11-02T12:46:09.606Z,17.30
2022-11-02T12:48:35.799Z,17.28
2022-11-02T12:51:01.993Z,17.29
2022-11-02T12:53:28.242Z,17.22
2022-11-02T12:55:54.487Z,17.18
2022-11-02T12:58:20.689Z,17.17
2022-11-02T13:00:46.887Z,17.13
2022-11-02T13:03:13.289Z,17.12
2022-11-02T13:05:39.534Z,17.14
2022-11-02T13:08:08.258Z,17.21
2022-11-02T13:10:34.592Z,17.22
2022-11-02T13:13:00.982Z,17.17
2022-11-02T13:15:27.161Z,17.13
2022-11-02T13:17:53.390Z,17.12
2022-11-02T13:20:19.556Z,17.12
2022-11-02T13:22:45.743Z,16.94
2022-11-02T13:25:12.009Z,17.01
2022-11-02T13:27:39.260Z,17.11
2022-11-02T13:30:06.560Z,17.01
2022-11-02T13:32:34.171Z,16.86
2022-11-02T13:35:00.485Z,16.77
2022-11-02T13:37:26.693Z,16.81
2022-11-02T13:39:52.890Z,17.04
2022-11-02T13:42:19.017Z,17.02
2022-11-02T13:44:45.207Z,17.10
2022-11-02T13:47:11.337Z,16.97
2022-11-02T13:49:37.550Z,17.03
2022-11-02T13:52:03.722Z,17.11
2022-11-02T13:54:29.947Z,17.15
2022-11-02T13:56:56.104Z,17.08
2022-11-02T13:59:22.300Z,17.00
2022-11-02T14:01:48.696Z,16.86
2022-11-02T14:04:14.956Z,17.05
2022-11-02T14:06:41.175Z,17.01
2022-11-02T14:09:07.360Z,17.08
2022-11-02T14:11:33.551Z,17.07
2022-11-02T14:13:59.735Z,16.96
2022-11-02T14:16:26.034Z,16.96
2022-11-02T14:18:52.407Z,16.92
2022-11-02T14:21:18.616Z,16.96
2022-11-02T14:23:44.797Z,17.00
2022-11-02T14:26:10.979Z,17.01
2022-11-02T14:28:37.191Z,16.92
2022-11-02T14:31:03.378Z,16.84
2022-11-02T14:33:29.579Z,16.90
2022-11-02T14:35:55.762Z,16.74
2022-11-02T14:38:21.983Z,16.79
2022-11-02T14:40:48.133Z,16.74
2022-11-02T14:43:14.323Z,16.60
2022-11-02T14:45:40.483Z,16.53
2022-11-02T14:48:06.697Z,16.45
2022-11-02T14:50:36.198Z,16.52
2022-11-02T14:53:02.587Z,16.52
2022-11-02T14:55:28.952Z,16.49
2022-11-02T14:57:55.278Z,16.37
2022-11-02T15:00:23.802Z,16.22
2022-11-02T15:02:50.009Z,16.19
2022-11-02T15:05:16.210Z,16.11
2022-11-02T15:07:42.458Z,15.95
2022-11-02T15:10:08.658Z,15.94
2022-11-02T15:12:34.927Z,15.77
2022-11-02T15:15:01.081Z,15.63
2022-11-02T15:17:27.277Z,15.55
2022-11-02T15:19:53.537Z,15.51
2022-11-02T15:22:19.772Z,15.34
2022-11-02T15:24:46.090Z,15.16
2022-11-02T15:27:12.324Z,14.96
2022-11-02T15:29:38.515Z,14.85
2022-11-02T15:32:04.710Z,14.69
2022-11-02T15:34:30.941Z,14.51
2022-11-02T15:36:57.205Z,14.33
2022-11-02T15:39:26.351Z,14.19
2022-11-02T15:41:52.554Z,14.10
2022-11-02T15:44:18.716Z,13.92
2022-11-02T15:46:44.906Z,13.72
2022-11-02T15:49:11.128Z,13.59
2022-11-02T15:51:37.276Z,13.40
2022-11-02T15:54:03.532Z,13.22
2022-11-02T15:56:29.786Z,13.08
2022-11-02T15:58:56.043Z,12.97
2022-11-02T16:01:22.414Z,12.81
2022-11-02T16:03:48.752Z,12.72
2022-11-02T16:06:15.010Z,12.66
2022-11-02T16:08:41.242Z,12.52
2022-11-02T16:11:07.497Z,12.32
2022-11-02T16:13:48.806Z,12.27
2022-11-02T16:16:19.945Z,12.13
2022-11-02T16:18:46.156Z,12.02
2022-11-02T16:21:12.417Z,11.95
2022-11-02T16:23:38.655Z,11.83
2022-11-02T16:26:04.835Z,11.68
2022-11-02T16:28:31.057Z,11.61
2022-11-02T16:30:57.224Z,11.52
2022-11-02T16:33:23.416Z,11.42
2022-11-02T16:35:49.728Z,11.34
2022-11-02T16:38:15.972Z,11.25
2022-11-02T16:40:42.158Z,11.18
2022-11-02T16:43:08.383Z,11.12
2022-11-02T16:45:37.174Z,10.99
2022-11-02T16:48:06.864Z,10.96
2022-11-02T16:50:33.388Z,10.88
2022-11-02T16:52:59.708Z,10.80
2022-11-02T16:55:25.931Z,10.72
2022-11-02T16:57:52.511Z,10.63
2022-11-02T17:00:18.761Z,10.58
2022-11-02T17:02:44.965Z,10.44
2022-11-02T17:05:11.170Z,10.40
2022-11-02T17:07:37.469Z,10.30
2022-11-02T17:10:05.946Z,10.24
2022-11-02T17:12:32.266Z,10.20
2022-11-02T17:14:58.482Z,10.13
2022-11-02T17:17:25.687Z,10.10
2022-11-02T17:19:51.818Z,10.02
2022-11-02T17:22:17.985Z,10.03
2022-11-02T17:24:44.158Z,9.98
2022-11-02T17:27:10.332Z,9.92
2022-11-02T17:29:36.469Z,9.85
2022-11-02T17:32:02.600Z,9.82
2022-11-02T17:34:28.745Z,9.73
2022-11-02T17:36:54.887Z,9.65
2022-11-02T17:42:11.635Z,9.62
2022-11-02T17:44:37.855Z,9.57
2022-11-02T17:47:04.036Z,9.49
2022-11-02T17:49:30.246Z,9.47
2022-11-02T17:51:56.456Z,9.36
2022-11-02T17:54:22.613Z,9.35
2022-11-02T17:56:48.788Z,9.33
2022-11-02T17:59:14.969Z,9.29
2022-11-02T18:01:41.361Z,9.28
2022-11-02T18:04:07.603Z,9.25
2022-11-02T18:06:33.814Z,9.22
2022-11-02T18:09:00.040Z,9.19
2022-11-02T18:11:26.784Z,9.18
2022-11-02T18:16:33.105Z,9.08
2022-11-02T18:18:59.261Z,9.10
2022-11-02T18:21:25.439Z,9.05
2022-11-02T18:23:51.664Z,9.01
2022-11-02T18:26:17.879Z,8.99
2022-11-02T18:28:44.011Z,8.97
2022-11-02T18:31:10.145Z,8.97
2022-11-02T18:33:36.383Z,8.93
2022-11-02T18:36:02.554Z,8.91
2022-11-02T18:38:28.734Z,8.85
2022-11-02T18:40:54.920Z,8.85
2022-11-02T18:43:21.061Z,8.83
2022-11-02T18:45:47.238Z,8.82
2022-11-02T18:48:13.385Z,8.83
2022-11-02T18:50:39.564Z,8.78
2022-11-02T18:53:05.763Z,8.76
2022-11-02T18:55:31.936Z,8.77
2022-11-02T18:57:58.085Z,8.75
2022-11-02T19:00:24.263Z,8.73
2022-11-02T19:02:50.526Z,8.69
2022-11-02T19:05:16.691Z,8.67
2022-11-02T19:07:42.853Z,8.66
2022-11-02T19:10:09.007Z,8.65
2022-11-02T19:12:35.131Z,8.61
2022-11-02T19:15:01.298Z,8.57
2022-11-02T19:17:27.453Z,8.55
2022-11-02T19:19:53.644Z,8.54
2022-11-02T19:22:19.821Z,8.54
2022-11-02T19:24:45.985Z,8.49
2022-11-02T19:27:12.174Z,8.48
2022-11-02T19:29:38.345Z,8.47
2022-11-02T19:32:04.534Z,8.45
2022-11-02T19:34:30.696Z,8.41
2022-11-02T19:36:56.915Z,8.41
2022-11-02T19:39:23.095Z,8.40
2022-11-02T19:41:49.325Z,8.35
2022-11-02T19:44:15.454Z,8.34
2022-11-02T19:49:07.843Z,8.32
2022-11-02T19:51:34.009Z,8.29
2022-11-02T19:54:00.270Z,8.28
2022-11-02T19:56:26.426Z,8.26
2022-11-02T19:58:52.573Z,8.18
2022-11-02T20:01:18.856Z,8.16
2022-11-02T20:03:45.099Z,8.10
2022-11-02T20:06:11.311Z,8.08
2022-11-02T20:08:37.447Z,8.11
2022-11-02T20:11:03.652Z,8.08
2022-11-02T20:13:29.801Z,8.09
2022-11-02T20:15:55.957Z,8.12
2022-11-02T20:18:22.564Z,8.12
2022-11-02T20:20:49.094Z,8.18
2022-11-02T20:23:15.324Z,8.17
2022-11-02T20:25:41.571Z,8.19
2022-11-02T20:28:08.017Z,8.23
2022-11-02T20:30:34.605Z,8.29
2022-11-02T20:33:00.759Z,8.27
2022-11-02T20:35:26.924Z,8.29
2022-11-02T20:37:53.181Z,8.32
2022-11-02T20:40:19.345Z,8.33
2022-11-02T20:42:45.494Z,8.33
2022-11-02T20:45:11.668Z,8.32
2022-11-02T20:47:37.933Z,8.31
2022-11-02T20:50:04.094Z,8.32
2022-11-02T20:55:24.504Z,8.28
2022-11-02T20:57:50.641Z,8.25
2022-11-02T21:00:16.793Z,8.24
2022-11-02T21:02:42.953Z,8.19
2022-11-02T21:05:09.205Z,8.15
2022-11-02T21:07:35.346Z,8.13
2022-11-02T21:10:01.520Z,8.14
2022-11-02T21:12:27.639Z,8.17
2022-11-02T21:14:53.816Z,8.19
2022-11-02T21:17:19.942Z,8.24
2022-11-02T21:19:46.080Z,8.28
2022-11-02T21:22:12.198Z,8.33
2022-11-02T21:24:38.352Z,8.34
2022-11-02T21:27:04.505Z,8.36
2022-11-02T21:29:30.655Z,8.37
2022-11-02T21:31:56.823Z,8.36
2022-11-02T21:34:22.963Z,8.37
2022-11-02T21:36:49.089Z,8.33
2022-11-02T21:39:15.240Z,8.33
2022-11-02T21:41:41.368Z,8.35
2022-11-02T21:44:07.523Z,8.40
2022-11-02T21:46:33.694Z,8.47
2022-11-02T21:48:59.847Z,8.50
2022-11-02T21:51:25.971Z,8.58
2022-11-02T21:53:52.130Z,8.68
2022-11-02T21:56:18.250Z,8.73
2022-11-02T21:58:46.063Z,8.77
2022-11-02T22:01:12.689Z,8.80
2022-11-02T22:03:38.936Z,8.84
2022-11-02T22:06:05.077Z,8.86
2022-11-02T22:08:31.189Z,8.83
2022-11-02T22:10:57.333Z,8.79
2022-11-02T22:13:23.441Z,8.77
2022-11-02T22:15:49.579Z,8.71
2022-11-02T22:18:15.719Z,8.64
2022-11-02T22:20:41.875Z,8.52
2022-11-02T22:23:08.228Z,8.50
2022-11-02T22:25:34.563Z,8.41
2022-11-02T22:28:00.705Z,8.38
2022-11-02T22:30:26.828Z,8.36
2022-11-02T22:32:52.961Z,8.34
2022-11-02T22:35:19.072Z,8.30
2022-11-02T22:37:45.215Z,8.28
2022-11-02T22:40:11.339Z,8.24
2022-11-02T22:42:39.879Z,8.20
2022-11-02T22:45:08.615Z,8.17
2022-11-02T22:47:34.731Z,8.13
2022-11-02T22:50:00.886Z,8.11
2022-11-02T22:52:27.056Z,8.11
2022-11-02T22:54:53.165Z,8.11
2022-11-02T22:57:19.302Z,8.09
2022-11-02T22:59:45.449Z,8.05
2022-11-02T23:02:11.632Z,8.04
2022-11-02T23:04:37.778Z,7.99
2022-11-02T23:07:03.912Z,7.96
2022-11-02T23:09:30.050Z,7.96
2022-11-02T23:11:56.195Z,7.92
2022-11-02T23:14:22.308Z,7.90
2022-11-02T23:16:48.422Z,7.89
2022-11-02T23:19:14.547Z,7.87
2022-11-02T23:21:40.684Z,7.87
2022-11-02T23:24:06.799Z,7.85
2022-11-02T23:26:32.903Z,7.82
2022-11-02T23:28:59.051Z,7.80
2022-11-02T23:31:25.156Z,7.82
2022-11-02T23:33:51.288Z,7.79
2022-11-02T23:36:17.435Z,7.78
2022-11-02T23:38:43.565Z,7.77
2022-11-02T23:41:09.692Z,7.76
2022-11-02T23:43:35.827Z,7.75
2022-11-02T23:46:01.958Z,7.74
2022-11-02T23:48:28.099Z,7.72
2022-11-02T23:50:54.250Z,7.71
2022-11-02T23:53:20.373Z,7.67
2022-11-02T23:55:46.498Z,7.65
2022-11-02T23:58:12.662Z,7.61
